Česky Dansk Deutsch English Español Suomi Français Magyar Italiano Nederlands norsk Polski Português svenska Türkçe

 

Het Weer

Gyanca Airport (Azerbijzjan)

00:00, 16 agosto 2016 (GMT)

NWNNE
WE
SWSSE
Home            
Gyanca Airport Tbilisi Yerevan Muhrani Khoy Kars Tabriz Baku / Bine Airport Ardabil Van Orumieh Maragheh / Sahand Nalchik Erzurum Mus Tur-Afb Mineral'Nye Vody Rasht Zanjan Saghez Aktau Batman Trabzon Ramsar

Om een weerknop op uw website of weblog te plaatsen, copieer onderstaande code en plak die in uw pagina. In het eerste vakje staat HTML-code, in het tweede vakje UBB-code.


Add to Google

Details

Wind speed:2 bf, 6 kn, 3.1 m/s, 6.9 miles/h, 11.1 km/h
Wind direction:NW, 310°
Visibilità totale:Maggiore di 10000 m, 10 km, 32800 ft, 6.2 miles
Clouds:Aufgelockert bewölkt at 10000 ft, 3048 m
Temperature:24°C, 75°F
Sensazione termica:25°C, 77°F
Temperatura di rugiada :18°C, 64°F
Pressione atmosferica:1015 hPa, 761.3 mmHg, 29.97 inHg, 1.002 atm
Umidità relativa:69.2 %
METAR:UBBG 160000Z 31006KT 9999 SCT100 24/18 Q1015 R12/CLRD NOSIG

Snelkoppelingen

Actuele weersinformatie van de hele wereld. Voeg locaties toe met het plus (+) symbool. Deze snelkoppelingen kunnen worden toegevoegd aan Google.

Lid van de Technetium groep

website free tracking
StatCounter NetStat W3C Validator

03-12-2023 04:33:36
astro.technetium.be money.technetium.be phote.technetium.be tafeltennistafel.technetium.be www.ligfiets.net